createdAt,value
2022-09-26T00:01:57.272Z,65.45
2022-09-26T00:04:26.028Z,65.56
2022-09-26T00:06:49.890Z,65.52
2022-09-26T00:09:16.234Z,65.24
2022-09-26T00:11:42.570Z,65.56
2022-09-26T00:14:08.890Z,65.41
2022-09-26T00:16:35.381Z,65.60
2022-09-26T00:19:01.566Z,65.53
2022-09-26T00:21:27.906Z,65.73
2022-09-26T00:23:54.245Z,65.39
2022-09-26T00:26:20.582Z,65.26
2022-09-26T00:28:46.905Z,65.35
2022-09-26T00:31:13.308Z,65.21
2022-09-26T00:33:39.573Z,65.15
2022-09-26T00:36:05.886Z,65.92
2022-09-26T00:38:32.208Z,66.42
2022-09-26T00:40:58.650Z,66.21
2022-09-26T00:43:24.868Z,66.00
2022-09-26T00:45:51.207Z,66.25
2022-09-26T00:48:17.530Z,66.59
2022-09-26T00:50:43.843Z,66.42
2022-09-26T00:53:10.166Z,66.40
2022-09-26T00:55:36.484Z,67.00
2022-09-26T00:58:02.848Z,67.69
2022-09-26T01:00:29.161Z,67.61
2022-09-26T01:02:55.509Z,67.34
2022-09-26T01:05:21.822Z,67.34
2022-09-26T01:07:48.146Z,67.70
2022-09-26T01:10:14.488Z,67.33
2022-09-26T01:12:40.827Z,67.25
2022-09-26T01:15:07.161Z,67.39
2022-09-26T01:17:33.505Z,67.28
2022-09-26T01:19:59.816Z,67.39
2022-09-26T01:22:26.176Z,67.53
2022-09-26T01:24:52.516Z,67.59
2022-09-26T01:27:18.859Z,67.60
2022-09-26T01:29:45.193Z,67.62
2022-09-26T01:32:11.541Z,67.45
2022-09-26T01:34:37.896Z,67.32
2022-09-26T01:37:04.240Z,67.12
2022-09-26T01:39:30.554Z,67.10
2022-09-26T01:41:56.879Z,67.67
2022-09-26T01:44:23.218Z,67.83
2022-09-26T01:46:49.560Z,67.35
2022-09-26T01:49:15.908Z,67.58
2022-09-26T01:51:42.215Z,67.83
2022-09-26T01:54:08.539Z,67.49
2022-09-26T01:56:34.886Z,67.13
2022-09-26T01:59:01.218Z,67.33
2022-09-26T02:01:27.658Z,67.59
2022-09-26T02:03:53.892Z,67.31
2022-09-26T02:06:20.216Z,67.21
2022-09-26T02:08:46.535Z,67.30
2022-09-26T02:11:12.893Z,67.57
2022-09-26T02:13:39.230Z,67.68
2022-09-26T02:16:05.624Z,67.62
2022-09-26T02:18:31.893Z,67.52
2022-09-26T02:20:58.277Z,67.00
2022-09-26T02:23:24.604Z,66.78
2022-09-26T02:25:50.949Z,66.47
2022-09-26T02:28:17.291Z,66.57
2022-09-26T02:30:43.634Z,66.60
2022-09-26T02:33:09.969Z,66.51
2022-09-26T02:35:36.306Z,66.75
2022-09-26T02:38:02.624Z,66.66
2022-09-26T02:40:29.021Z,66.56
2022-09-26T02:42:55.299Z,66.50
2022-09-26T02:45:21.624Z,66.70
2022-09-26T02:47:47.942Z,66.65
2022-09-26T02:50:15.251Z,66.57
2022-09-26T02:52:40.625Z,66.58
2022-09-26T02:55:06.967Z,66.56
2022-09-26T02:57:33.281Z,66.76
2022-09-26T02:59:59.659Z,67.02
2022-09-26T03:02:26.001Z,67.05
2022-09-26T03:04:52.348Z,66.80
2022-09-26T03:07:18.685Z,67.00
2022-09-26T03:09:45.025Z,67.21
2022-09-26T03:12:11.359Z,67.33
2022-09-26T03:14:37.709Z,67.74
2022-09-26T03:17:04.054Z,67.76
2022-09-26T03:19:30.388Z,68.33
2022-09-26T03:21:56.746Z,68.44
2022-09-26T03:24:23.086Z,68.85
2022-09-26T03:26:49.425Z,68.83
2022-09-26T03:29:15.793Z,68.92
2022-09-26T03:31:42.155Z,69.22
2022-09-26T03:34:08.450Z,68.80
2022-09-26T03:36:34.826Z,68.73
2022-09-26T03:39:01.167Z,68.81
2022-09-26T03:41:27.481Z,69.02
2022-09-26T03:43:53.840Z,68.92
2022-09-26T03:46:20.182Z,68.89
2022-09-26T03:48:46.512Z,69.14
2022-09-26T03:51:12.835Z,69.30
2022-09-26T03:53:39.192Z,69.25
2022-09-26T03:56:05.538Z,68.89
2022-09-26T03:58:31.855Z,68.74
2022-09-26T04:00:58.232Z,68.75
2022-09-26T04:03:24.519Z,68.66
2022-09-26T04:05:50.876Z,68.62
2022-09-26T04:08:17.195Z,68.77
2022-09-26T04:10:43.536Z,68.56
2022-09-26T04:13:09.876Z,68.94
2022-09-26T04:15:36.194Z,68.53
2022-09-26T04:18:02.532Z,68.65
2022-09-26T04:20:28.872Z,68.79
2022-09-26T04:22:55.274Z,68.69
2022-09-26T04:25:21.586Z,68.32
2022-09-26T04:27:47.909Z,67.95
2022-09-26T04:30:14.266Z,67.95
2022-09-26T04:32:40.597Z,68.14
2022-09-26T04:35:06.914Z,68.23
2022-09-26T04:37:33.241Z,67.81
2022-09-26T04:39:59.578Z,67.38
2022-09-26T04:42:25.899Z,67.33
2022-09-26T04:44:52.255Z,67.39
2022-09-26T04:47:18.572Z,67.05
2022-09-26T04:49:44.913Z,67.31
2022-09-26T04:52:11.255Z,67.16
2022-09-26T04:54:37.628Z,67.39
2022-09-26T04:57:03.942Z,67.21
2022-09-26T04:59:30.265Z,67.26
2022-09-26T05:01:56.618Z,67.44
2022-09-26T05:04:27.494Z,67.39
2022-09-26T05:06:49.274Z,67.37
2022-09-26T05:09:15.627Z,67.48
2022-09-26T05:11:41.972Z,67.12
2022-09-26T05:14:08.285Z,66.78
2022-09-26T05:16:34.654Z,67.18
2022-09-26T05:19:00.942Z,67.14
2022-09-26T05:21:27.265Z,66.94
2022-09-26T05:23:53.605Z,67.13
2022-09-26T05:26:19.962Z,67.24
2022-09-26T05:28:46.275Z,66.86
2022-09-26T05:31:12.669Z,66.48
2022-09-26T05:33:38.995Z,66.09
2022-09-26T05:36:05.318Z,64.54
2022-09-26T05:38:31.635Z,62.73
2022-09-26T05:40:58.090Z,61.92
2022-09-26T05:43:24.324Z,62.52
2022-09-26T05:45:50.648Z,62.63
2022-09-26T05:48:16.968Z,62.81
2022-09-26T05:50:43.795Z,63.10
2022-09-26T05:53:09.667Z,63.14
2022-09-26T05:55:35.991Z,63.86
2022-09-26T05:58:02.313Z,63.96
2022-09-26T06:00:28.742Z,63.83
2022-09-26T06:02:54.984Z,63.58
2022-09-26T06:05:21.316Z,63.52
2022-09-26T06:07:47.639Z,62.99
2022-09-26T06:10:13.970Z,62.66
2022-09-26T06:12:40.327Z,62.00
2022-09-26T06:15:06.678Z,61.14
2022-09-26T06:17:33.014Z,59.71
2022-09-26T06:19:59.358Z,57.92
2022-09-26T06:22:25.713Z,57.59
2022-09-26T06:24:52.060Z,57.62
2022-09-26T06:27:18.394Z,58.13
2022-09-26T06:29:44.750Z,58.63
2022-09-26T06:32:11.163Z,56.77
2022-09-26T06:34:37.413Z,55.50
2022-09-26T06:37:03.733Z,55.50
2022-09-26T06:39:30.083Z,54.64
2022-09-26T06:41:56.401Z,53.20
2022-09-26T06:44:22.744Z,53.90
2022-09-26T06:46:49.117Z,53.88
2022-09-26T06:49:15.434Z,52.63
2022-09-26T06:51:41.725Z,49.93
2022-09-26T06:54:08.061Z,47.62
2022-09-26T06:56:34.418Z,45.98
2022-09-26T06:59:00.739Z,44.10
2022-09-26T07:01:27.194Z,43.95
2022-09-26T07:03:54.511Z,43.57
2022-09-26T07:06:19.747Z,43.30
2022-09-26T07:09:03.361Z,42.54
2022-09-26T07:13:38.794Z,40.97
2022-09-26T07:16:05.165Z,40.39
2022-09-26T07:18:31.470Z,39.16
2022-09-26T07:20:57.788Z,39.77
2022-09-26T07:23:24.129Z,39.31
2022-09-26T07:25:50.437Z,39.34
2022-09-26T07:28:16.776Z,38.92
2022-09-26T07:30:43.116Z,39.37
2022-09-26T07:33:09.430Z,40.39
2022-09-26T07:35:35.773Z,41.07
2022-09-26T07:38:02.138Z,41.48
2022-09-26T07:40:28.551Z,41.16
2022-09-26T07:43:18.097Z,41.16
2022-09-26T07:45:29.032Z,42.68
2022-09-26T07:47:47.532Z,42.29
2022-09-26T07:50:13.871Z,42.31
2022-09-26T07:52:40.208Z,41.56
2022-09-26T07:55:06.530Z,41.36
2022-09-26T07:57:32.850Z,41.15
2022-09-26T07:59:59.171Z,40.77
2022-09-26T08:02:25.690Z,38.93
2022-09-26T08:04:51.847Z,38.77
2022-09-26T08:07:18.170Z,38.52
2022-09-26T08:09:44.500Z,38.70
2022-09-26T08:12:10.839Z,38.05
2022-09-26T08:14:37.161Z,38.85
2022-09-26T08:17:03.491Z,37.85
2022-09-26T08:19:29.813Z,37.63
2022-09-26T08:21:56.136Z,37.94
2022-09-26T08:24:22.518Z,37.26
2022-09-26T08:26:48.835Z,37.90
2022-09-26T08:29:15.156Z,38.35
2022-09-26T08:31:41.631Z,36.86
2022-09-26T08:34:07.843Z,36.37
2022-09-26T08:36:34.183Z,36.13
2022-09-26T08:39:00.526Z,35.92
2022-09-26T08:41:26.894Z,36.17
2022-09-26T08:43:53.233Z,36.69
2022-09-26T08:46:19.583Z,37.30
2022-09-26T08:48:45.895Z,37.83
2022-09-26T08:51:12.213Z,36.90
2022-09-26T08:53:38.558Z,36.08
2022-09-26T08:56:04.896Z,35.10
2022-09-26T08:58:31.215Z,34.10
2022-09-26T09:00:57.564Z,34.06
2022-09-26T09:03:23.887Z,34.10
2022-09-26T09:05:50.224Z,34.20
2022-09-26T09:08:16.598Z,33.30
2022-09-26T09:10:42.935Z,32.51
2022-09-26T09:13:09.256Z,32.97
2022-09-26T09:15:35.652Z,32.46
2022-09-26T09:18:01.985Z,32.08
2022-09-26T09:20:28.343Z,31.79
2022-09-26T09:22:54.681Z,31.12
2022-09-26T09:25:21.040Z,31.65
2022-09-26T09:27:54.773Z,31.45
2022-09-26T09:30:17.545Z,32.86
2022-09-26T09:32:40.049Z,34.19
2022-09-26T09:35:06.397Z,33.97
2022-09-26T09:37:32.714Z,32.75
2022-09-26T09:39:59.032Z,31.02
2022-09-26T09:42:25.381Z,30.72
2022-09-26T09:44:51.694Z,30.97
2022-09-26T09:47:18.042Z,30.94
2022-09-26T09:49:44.384Z,30.46
2022-09-26T09:52:10.714Z,30.38
2022-09-26T09:54:37.067Z,29.66
2022-09-26T09:57:03.386Z,29.31
2022-09-26T09:59:29.716Z,29.64
2022-09-26T10:01:56.055Z,30.04
2022-09-26T10:04:22.401Z,30.29
2022-09-26T10:06:48.749Z,30.31
2022-09-26T10:09:37.501Z,29.51
2022-09-26T10:11:41.457Z,28.75
2022-09-26T10:14:07.784Z,28.09
2022-09-26T10:16:34.191Z,28.67
2022-09-26T10:19:03.351Z,28.15
2022-09-26T10:21:26.766Z,28.91
2022-09-26T10:23:53.137Z,28.16
2022-09-26T10:26:19.477Z,28.75
2022-09-26T10:28:45.793Z,28.71
2022-09-26T10:31:12.188Z,28.88
2022-09-26T10:33:38.493Z,28.38
2022-09-26T10:36:04.817Z,26.86
2022-09-26T10:38:31.156Z,26.58
2022-09-26T10:40:57.581Z,26.76
2022-09-26T10:43:23.817Z,27.64
2022-09-26T10:45:50.164Z,27.35
2022-09-26T10:48:16.477Z,28.09
2022-09-26T10:50:42.825Z,29.70
2022-09-26T10:53:09.169Z,29.82
2022-09-26T10:55:35.483Z,29.18
2022-09-26T10:58:01.834Z,28.70
2022-09-26T11:00:28.152Z,29.03
2022-09-26T11:02:54.497Z,29.51
2022-09-26T11:05:20.840Z,30.00
2022-09-26T11:07:47.156Z,30.23
2022-09-26T11:10:13.547Z,30.03
2022-09-26T11:12:39.842Z,29.71
2022-09-26T11:15:06.157Z,29.31
2022-09-26T11:17:32.479Z,29.39
2022-09-26T11:19:58.859Z,29.53
2022-09-26T11:22:25.171Z,30.16
2022-09-26T11:24:51.495Z,30.53
2022-09-26T11:27:17.830Z,29.96
2022-09-26T11:29:44.176Z,29.35
2022-09-26T11:32:10.509Z,29.61
2022-09-26T11:34:36.834Z,29.72
2022-09-26T11:37:03.153Z,29.26
2022-09-26T11:39:29.477Z,29.38
2022-09-26T11:41:55.854Z,29.50
2022-09-26T11:44:22.198Z,29.29
2022-09-26T11:46:48.608Z,28.50
2022-09-26T11:49:14.875Z,28.92
2022-09-26T11:51:41.194Z,29.17
2022-09-26T11:54:07.517Z,29.64
2022-09-26T11:56:33.873Z,29.99
2022-09-26T11:59:00.215Z,29.71
2022-09-26T12:01:26.529Z,29.73
2022-09-26T12:03:52.988Z,29.57
2022-09-26T12:06:19.246Z,29.52
2022-09-26T12:08:45.600Z,29.69
2022-09-26T12:11:11.921Z,30.19
2022-09-26T12:13:38.246Z,30.66
2022-09-26T12:16:04.661Z,31.03
2022-09-26T12:18:30.937Z,30.75
2022-09-26T12:20:57.277Z,31.29
2022-09-26T12:23:23.653Z,31.59
2022-09-26T12:25:49.967Z,31.82
2022-09-26T12:28:16.291Z,32.46
2022-09-26T12:30:42.676Z,32.43
2022-09-26T12:33:08.977Z,32.38
2022-09-26T12:35:35.350Z,32.94
2022-09-26T12:38:01.717Z,33.19
2022-09-26T12:40:28.107Z,33.27
2022-09-26T12:42:54.358Z,32.87
2022-09-26T12:45:20.720Z,32.87
2022-09-26T12:47:47.071Z,32.68
2022-09-26T12:50:13.410Z,32.89
2022-09-26T12:52:39.767Z,33.02
2022-09-26T12:55:06.107Z,33.07
2022-09-26T12:57:32.425Z,33.35
2022-09-26T12:59:58.747Z,33.73
2022-09-26T13:02:25.184Z,34.04
2022-09-26T13:04:51.414Z,33.93
2022-09-26T13:07:19.783Z,34.52
2022-09-26T13:09:44.093Z,33.98
2022-09-26T13:12:10.419Z,34.42
2022-09-26T13:14:36.759Z,34.42
2022-09-26T13:17:03.084Z,34.73
2022-09-26T13:19:29.456Z,34.86
2022-09-26T13:21:55.771Z,34.54
2022-09-26T13:24:22.123Z,34.69
2022-09-26T13:26:48.473Z,34.44
2022-09-26T13:29:18.454Z,35.14
2022-09-26T13:31:41.245Z,34.75
2022-09-26T13:34:07.477Z,35.25
2022-09-26T13:36:33.819Z,35.50
2022-09-26T13:39:00.156Z,34.67
2022-09-26T13:41:26.502Z,35.07
2022-09-26T13:43:52.837Z,35.32
2022-09-26T13:46:19.232Z,35.30
2022-09-26T13:48:45.498Z,35.21
2022-09-26T13:51:11.824Z,35.40
2022-09-26T13:53:38.152Z,35.44
2022-09-26T13:56:04.499Z,36.04
2022-09-26T13:58:30.851Z,36.56
2022-09-26T14:00:57.192Z,36.63
2022-09-26T14:03:23.660Z,36.70
2022-09-26T14:05:49.889Z,37.20
2022-09-26T14:08:16.200Z,36.76
2022-09-26T14:10:42.547Z,37.44
2022-09-26T14:13:08.867Z,37.22
2022-09-26T14:15:35.254Z,36.54
2022-09-26T14:18:01.536Z,36.79
2022-09-26T14:20:27.915Z,36.66
2022-09-26T14:22:54.260Z,35.75
2022-09-26T14:25:20.598Z,36.39
2022-09-26T14:27:46.937Z,36.18
2022-09-26T14:30:13.278Z,36.62
2022-09-26T14:32:39.619Z,36.68
2022-09-26T14:35:05.977Z,36.95
2022-09-26T14:37:32.294Z,36.64
2022-09-26T14:39:58.655Z,37.09
2022-09-26T14:42:24.974Z,37.44
2022-09-26T14:44:51.300Z,37.50
2022-09-26T14:47:17.659Z,37.65
2022-09-26T14:49:43.979Z,37.57
2022-09-26T14:52:11.387Z,37.90
2022-09-26T14:54:36.680Z,37.83
2022-09-26T14:57:03.001Z,37.55
2022-09-26T14:59:29.342Z,37.13
2022-09-26T15:01:55.728Z,36.95
2022-09-26T15:04:22.055Z,36.99
2022-09-26T15:06:48.380Z,37.11
2022-09-26T15:09:14.728Z,37.27
2022-09-26T15:11:41.045Z,37.58
2022-09-26T15:14:07.439Z,37.50
2022-09-26T15:16:33.731Z,37.77
2022-09-26T15:19:00.075Z,37.85
2022-09-26T15:21:26.399Z,37.92
2022-09-26T15:23:52.738Z,38.00
2022-09-26T15:26:19.060Z,38.18
2022-09-26T15:28:45.461Z,38.22
2022-09-26T15:31:11.831Z,38.52
2022-09-26T15:33:38.102Z,38.62
2022-09-26T15:36:04.449Z,38.47
2022-09-26T15:38:30.816Z,38.27
2022-09-26T15:40:57.229Z,38.55
2022-09-26T15:43:23.468Z,38.74
2022-09-26T15:45:49.862Z,38.52
2022-09-26T15:48:16.114Z,38.71
2022-09-26T15:50:42.431Z,38.78
2022-09-26T15:53:08.757Z,38.94
2022-09-26T15:55:35.095Z,39.04
2022-09-26T15:58:01.439Z,39.13
2022-09-26T16:00:27.776Z,39.23
2022-09-26T16:02:54.209Z,39.36
2022-09-26T16:05:20.464Z,39.55
2022-09-26T16:07:46.783Z,39.82
2022-09-26T16:10:13.138Z,39.99
2022-09-26T16:12:39.460Z,40.19
2022-09-26T16:15:05.819Z,40.31
2022-09-26T16:17:32.125Z,40.23
2022-09-26T16:19:58.461Z,40.18
2022-09-26T16:22:24.784Z,40.30
2022-09-26T16:24:51.127Z,40.44
2022-09-26T16:27:17.479Z,40.31
2022-09-26T16:29:43.817Z,40.76
2022-09-26T16:32:10.176Z,40.69
2022-09-26T16:34:36.523Z,40.58
2022-09-26T16:37:02.855Z,40.59
2022-09-26T16:39:29.169Z,40.54
2022-09-26T16:42:03.691Z,40.27
2022-09-26T16:44:27.444Z,40.23
2022-09-26T16:46:48.232Z,40.57
2022-09-26T16:49:14.547Z,40.62
2022-09-26T16:51:40.884Z,39.93
2022-09-26T16:54:07.333Z,40.07
2022-09-26T16:56:33.582Z,40.08
2022-09-26T16:58:59.894Z,40.10
2022-09-26T17:01:26.319Z,40.20
2022-09-26T17:03:55.027Z,40.04
2022-09-26T17:06:21.370Z,40.16
2022-09-26T17:08:47.723Z,40.21
2022-09-26T17:11:14.039Z,40.28
2022-09-26T17:13:40.360Z,40.47
2022-09-26T17:16:06.790Z,40.45
2022-09-26T17:18:33.215Z,40.82
2022-09-26T17:20:59.429Z,40.75
2022-09-26T17:23:39.933Z,41.25
2022-09-26T17:25:57.411Z,41.94
2022-09-26T17:28:18.909Z,41.28
2022-09-26T17:30:45.392Z,42.14
2022-09-26T17:33:11.703Z,41.83
2022-09-26T17:35:38.116Z,42.10
2022-09-26T17:38:04.708Z,42.38
2022-09-26T17:40:31.138Z,42.75
2022-09-26T17:42:57.433Z,43.32
2022-09-26T17:45:23.749Z,44.37
2022-09-26T17:47:50.091Z,44.54
2022-09-26T17:50:16.478Z,44.74
2022-09-26T17:52:42.799Z,45.88
2022-09-26T17:55:09.139Z,46.85
2022-09-26T17:57:41.470Z,46.98
2022-09-26T18:00:01.824Z,47.28
2022-09-26T18:02:28.208Z,47.57
2022-09-26T18:04:54.496Z,48.05
2022-09-26T18:07:20.837Z,48.52
2022-09-26T18:09:47.153Z,48.92
2022-09-26T18:12:13.685Z,49.42
2022-09-26T18:14:40.051Z,49.25
2022-09-26T18:17:06.584Z,49.57
2022-09-26T18:19:32.907Z,49.36
2022-09-26T18:21:59.427Z,49.51
2022-09-26T18:24:25.929Z,49.08
2022-09-26T18:26:52.463Z,49.30
2022-09-26T18:29:19.015Z,49.24
2022-09-26T18:31:45.620Z,49.39
2022-09-26T18:34:12.145Z,49.46
2022-09-26T18:36:38.427Z,49.55
2022-09-26T18:39:04.921Z,49.42
2022-09-26T18:41:31.254Z,49.84
2022-09-26T18:43:57.568Z,49.75
2022-09-26T18:46:24.154Z,49.77
2022-09-26T18:48:50.410Z,49.71
2022-09-26T18:51:16.763Z,49.33
2022-09-26T18:53:43.200Z,49.07
2022-09-26T18:56:09.541Z,49.23
2022-09-26T18:58:36.043Z,49.52
2022-09-26T19:01:02.829Z,52.74
2022-09-26T19:03:28.923Z,51.64
2022-09-26T19:05:55.293Z,53.72
2022-09-26T19:08:21.788Z,56.15
2022-09-26T19:10:48.293Z,60.27
2022-09-26T19:13:14.802Z,61.47
2022-09-26T19:15:41.151Z,62.61
2022-09-26T19:18:07.442Z,64.60
2022-09-26T19:20:33.767Z,66.75
2022-09-26T19:23:00.112Z,67.24
2022-09-26T19:25:26.448Z,68.48
2022-09-26T19:27:52.812Z,69.55
2022-09-26T19:30:19.128Z,70.17
2022-09-26T19:32:45.458Z,71.12
2022-09-26T19:35:11.792Z,71.42
2022-09-26T19:37:38.180Z,73.70
2022-09-26T19:40:04.522Z,73.73
2022-09-26T19:42:30.832Z,74.37
2022-09-26T19:44:57.186Z,75.71
2022-09-26T19:47:23.513Z,76.57
2022-09-26T19:49:49.910Z,76.66
2022-09-26T19:52:16.247Z,77.59
2022-09-26T19:54:42.559Z,78.84
2022-09-26T19:57:08.902Z,78.32
2022-09-26T19:59:35.415Z,78.62
2022-09-26T20:02:01.850Z,79.39
2022-09-26T20:04:28.102Z,79.83
2022-09-26T20:06:54.426Z,80.72
2022-09-26T20:09:20.750Z,80.73
2022-09-26T20:11:47.073Z,80.87
2022-09-26T20:14:13.418Z,81.60
2022-09-26T20:16:39.799Z,83.31
2022-09-26T20:19:06.107Z,84.01
2022-09-26T20:21:32.431Z,84.71
2022-09-26T20:23:58.763Z,85.54
2022-09-26T20:26:25.107Z,86.23
2022-09-26T20:28:51.417Z,85.92
2022-09-26T20:31:17.834Z,86.46
2022-09-26T20:33:44.121Z,86.15
2022-09-26T20:36:10.448Z,86.04
2022-09-26T20:38:36.802Z,86.36
2022-09-26T20:41:03.258Z,86.18
2022-09-26T20:43:29.492Z,86.19
2022-09-26T20:45:55.824Z,85.66
2022-09-26T20:48:22.134Z,85.92
2022-09-26T20:50:48.452Z,84.87
2022-09-26T20:53:14.786Z,85.32
2022-09-26T20:55:44.119Z,85.64
2022-09-26T20:58:07.467Z,86.08
2022-09-26T21:00:33.802Z,86.79
2022-09-26T21:03:00.189Z,87.46
2022-09-26T21:05:26.441Z,87.74
2022-09-26T21:07:52.803Z,87.39
2022-09-26T21:10:19.154Z,86.91
2022-09-26T21:20:40.275Z,86.41
2022-09-26T21:23:06.620Z,86.85
2022-09-26T21:25:33.010Z,86.65
2022-09-26T21:27:59.337Z,87.19
2022-09-26T21:30:25.789Z,87.79
2022-09-26T21:32:52.037Z,87.82
2022-09-26T21:35:18.366Z,88.25
2022-09-26T21:37:44.724Z,88.29
2022-09-26T21:40:11.077Z,89.13
2022-09-26T21:42:37.424Z,91.45
2022-09-26T21:45:03.770Z,92.57
2022-09-26T21:47:30.112Z,93.28
2022-09-26T21:49:56.435Z,93.76
2022-09-26T21:52:22.768Z,93.91
2022-09-26T21:54:49.099Z,94.67
2022-09-26T21:57:15.416Z,94.78
2022-09-26T21:59:41.736Z,94.97
2022-09-26T22:02:08.126Z,95.17
2022-09-26T22:04:34.486Z,95.05
2022-09-26T22:07:00.835Z,94.49
2022-09-26T22:09:27.175Z,94.16
2022-09-26T22:11:53.504Z,93.67
2022-09-26T22:14:19.812Z,93.82
2022-09-26T22:16:46.175Z,93.57
2022-09-26T22:19:12.567Z,93.51
2022-09-26T22:21:38.830Z,93.73
2022-09-26T22:24:05.170Z,93.94
2022-09-26T22:26:31.524Z,94.39
2022-09-26T22:28:57.845Z,95.17
2022-09-26T22:31:24.239Z,96.74
2022-09-26T22:33:50.518Z,98.00
2022-09-26T22:36:16.839Z,98.60
2022-09-26T22:38:43.166Z,99.06
2022-09-26T22:41:09.509Z,99.88
2022-09-26T22:43:35.849Z,100.00
2022-09-26T22:46:02.290Z,100.00
2022-09-26T22:48:28.525Z,100.00
2022-09-26T22:50:54.889Z,100.00
2022-09-26T22:53:21.201Z,100.00
2022-09-26T22:55:47.523Z,100.00
2022-09-26T22:58:13.878Z,100.00
2022-09-26T23:00:40.203Z,100.00
2022-09-26T23:03:06.525Z,100.00
2022-09-26T23:05:32.879Z,100.00
2022-09-26T23:07:59.198Z,100.00
2022-09-26T23:10:25.558Z,100.00
2022-09-26T23:12:51.891Z,100.00
2022-09-26T23:15:18.233Z,100.00
2022-09-26T23:17:44.554Z,100.00
2022-09-26T23:20:10.876Z,100.00
2022-09-26T23:22:37.218Z,100.00
2022-09-26T23:25:03.556Z,100.00
2022-09-26T23:27:29.871Z,100.00
2022-09-26T23:29:56.195Z,100.00
2022-09-26T23:32:22.531Z,100.00
2022-09-26T23:34:48.871Z,100.00
2022-09-26T23:37:15.195Z,100.00
2022-09-26T23:39:41.539Z,100.00
2022-09-26T23:42:07.842Z,100.00
2022-09-26T23:44:34.163Z,100.00
2022-09-26T23:47:00.505Z,100.00
2022-09-26T23:49:26.857Z,100.00
2022-09-26T23:51:53.191Z,100.00
2022-09-26T23:54:19.515Z,100.00
2022-09-26T23:56:45.827Z,100.00
2022-09-26T23:59:12.255Z,100.00
